sensor_id;sensor_type;location;lat;lon;timestamp;P1;durP1;ratioP1;P2;durP2;ratioP2
71558;SDS011;59382;43.852;25.952;2022-10-17T00:01:40;11.65;;;7.93;;
71558;SDS011;59382;43.852;25.952;2022-10-17T00:04:06;15.57;;;7.88;;
71558;SDS011;59382;43.852;25.952;2022-10-17T00:06:31;9.55;;;6.20;;
71558;SDS011;59382;43.852;25.952;2022-10-17T00:08:57;14.48;;;7.65;;
71558;SDS011;59382;43.852;25.952;2022-10-17T00:11:23;10.30;;;6.13;;
71558;SDS011;59382;43.852;25.952;2022-10-17T00:13:49;11.75;;;5.78;;
71558;SDS011;59382;43.852;25.952;2022-10-17T00:18:49;11.45;;;6.32;;
71558;SDS011;59382;43.852;25.952;2022-10-17T00:21:15;10.85;;;5.90;;
71558;SDS011;59382;43.852;25.952;2022-10-17T00:23:42;12.50;;;6.13;;
71558;SDS011;59382;43.852;25.952;2022-10-17T00:26:07;9.38;;;5.63;;
71558;SDS011;59382;43.852;25.952;2022-10-17T00:28:34;10.57;;;5.93;;
71558;SDS011;59382;43.852;25.952;2022-10-17T00:31:00;10.88;;;5.63;;
71558;SDS011;59382;43.852;25.952;2022-10-17T00:33:27;6.10;;;4.90;;
71558;SDS011;59382;43.852;25.952;2022-10-17T00:36:04;8.90;;;5.85;;
71558;SDS011;59382;43.852;25.952;2022-10-17T00:38:31;8.05;;;4.70;;
71558;SDS011;59382;43.852;25.952;2022-10-17T00:40:58;7.93;;;4.30;;
71558;SDS011;59382;43.852;25.952;2022-10-17T00:43:23;7.57;;;4.88;;
71558;SDS011;59382;43.852;25.952;2022-10-17T00:45:49;6.10;;;4.00;;
71558;SDS011;59382;43.852;25.952;2022-10-17T00:48:15;7.85;;;4.43;;
71558;SDS011;59382;43.852;25.952;2022-10-17T00:50:41;12.55;;;4.75;;
71558;SDS011;59382;43.852;25.952;2022-10-17T00:53:10;6.78;;;4.68;;
71558;SDS011;59382;43.852;25.952;2022-10-17T00:55:37;5.25;;;4.15;;
71558;SDS011;59382;43.852;25.952;2022-10-17T00:58:12;8.40;;;4.30;;
71558;SDS011;59382;43.852;25.952;2022-10-17T01:00:38;7.07;;;4.70;;
71558;SDS011;59382;43.852;25.952;2022-10-17T01:03:05;9.70;;;5.03;;
71558;SDS011;59382;43.852;25.952;2022-10-17T01:05:31;8.30;;;4.25;;
71558;SDS011;59382;43.852;25.952;2022-10-17T01:07:57;12.43;;;3.67;;
71558;SDS011;59382;43.852;25.952;2022-10-17T01:10:24;5.35;;;3.50;;
71558;SDS011;59382;43.852;25.952;2022-10-17T01:12:59;5.75;;;3.92;;
71558;SDS011;59382;43.852;25.952;2022-10-17T01:26:58;6.30;;;3.30;;
71558;SDS011;59382;43.852;25.952;2022-10-17T01:34:34;7.78;;;4.20;;
71558;SDS011;59382;43.852;25.952;2022-10-17T01:40:08;6.57;;;3.53;;
71558;SDS011;59382;43.852;25.952;2022-10-17T01:45:27;6.03;;;3.95;;
71558;SDS011;59382;43.852;25.952;2022-10-17T01:47:58;4.82;;;3.50;;
71558;SDS011;59382;43.852;25.952;2022-10-17T01:50:30;8.63;;;4.20;;
71558;SDS011;59382;43.852;25.952;2022-10-17T01:53:01;5.95;;;3.67;;
71558;SDS011;59382;43.852;25.952;2022-10-17T01:55:32;9.95;;;4.03;;
71558;SDS011;59382;43.852;25.952;2022-10-17T01:58:35;5.85;;;4.43;;
71558;SDS011;59382;43.852;25.952;2022-10-17T02:00:55;4.45;;;3.55;;
71558;SDS011;59382;43.852;25.952;2022-10-17T02:03:25;9.77;;;3.50;;
71558;SDS011;59382;43.852;25.952;2022-10-17T02:05:52;5.07;;;3.75;;
71558;SDS011;59382;43.852;25.952;2022-10-17T02:08:28;5.78;;;3.53;;
71558;SDS011;59382;43.852;25.952;2022-10-17T02:11:05;5.47;;;3.35;;
71558;SDS011;59382;43.852;25.952;2022-10-17T02:22:06;6.50;;;4.10;;
71558;SDS011;59382;43.852;25.952;2022-10-17T02:24:46;8.02;;;4.05;;
71558;SDS011;59382;43.852;25.952;2022-10-17T02:30:22;4.32;;;3.20;;
71558;SDS011;59382;43.852;25.952;2022-10-17T02:32:58;5.63;;;3.78;;
71558;SDS011;59382;43.852;25.952;2022-10-17T02:35:32;5.25;;;4.15;;
71558;SDS011;59382;43.852;25.952;2022-10-17T02:38:02;30.08;;;7.05;;
71558;SDS011;59382;43.852;25.952;2022-10-17T02:40:29;11.20;;;5.03;;
71558;SDS011;59382;43.852;25.952;2022-10-17T02:42:55;9.30;;;5.03;;
71558;SDS011;59382;43.852;25.952;2022-10-17T02:45:24;5.97;;;4.13;;
71558;SDS011;59382;43.852;25.952;2022-10-17T02:47:54;6.22;;;3.78;;
71558;SDS011;59382;43.852;25.952;2022-10-17T02:50:29;7.80;;;4.05;;
71558;SDS011;59382;43.852;25.952;2022-10-17T02:53:10;11.70;;;5.38;;
71558;SDS011;59382;43.852;25.952;2022-10-17T02:55:42;5.88;;;4.15;;
